sensor_id;sensor_type;location;lat;lon;timestamp;temperature;humidity
27004;DHT22;14546;47.590;19.022;2023-04-24T00:00:13;12.40;62.10
27004;DHT22;14546;47.590;19.022;2023-04-24T00:02:40;12.50;62.30
27004;DHT22;14546;47.590;19.022;2023-04-24T00:05:07;12.60;62.30
27004;DHT22;14546;47.590;19.022;2023-04-24T00:07:34;12.60;62.40
27004;DHT22;14546;47.590;19.022;2023-04-24T00:10:00;12.60;62.40
27004;DHT22;14546;47.590;19.022;2023-04-24T00:12:27;12.60;62.40
27004;DHT22;14546;47.590;19.022;2023-04-24T00:14:56;12.70;62.60
27004;DHT22;14546;47.590;19.022;2023-04-24T00:17:23;12.70;62.70
27004;DHT22;14546;47.590;19.022;2023-04-24T00:19:49;12.80;62.60
27004;DHT22;14546;47.590;19.022;2023-04-24T00:22:17;12.80;62.60
27004;DHT22;14546;47.590;19.022;2023-04-24T00:24:43;12.80;62.50
27004;DHT22;14546;47.590;19.022;2023-04-24T00:27:08;12.90;62.30
27004;DHT22;14546;47.590;19.022;2023-04-24T00:29:34;12.90;62.30
27004;DHT22;14546;47.590;19.022;2023-04-24T00:32:01;13.00;62.20
27004;DHT22;14546;47.590;19.022;2023-04-24T00:34:27;13.00;62.10
27004;DHT22;14546;47.590;19.022;2023-04-24T00:36:52;13.10;62.20
27004;DHT22;14546;47.590;19.022;2023-04-24T00:39:19;13.30;65.50
27004;DHT22;14546;47.590;19.022;2023-04-24T00:41:46;13.50;67.60
27004;DHT22;14546;47.590;19.022;2023-04-24T00:44:14;13.50;68.40
27004;DHT22;14546;47.590;19.022;2023-04-24T00:46:41;13.50;69.00
27004;DHT22;14546;47.590;19.022;2023-04-24T00:49:07;13.70;70.00
27004;DHT22;14546;47.590;19.022;2023-04-24T00:51:34;13.70;70.20
27004;DHT22;14546;47.590;19.022;2023-04-24T00:54:00;13.80;71.00
27004;DHT22;14546;47.590;19.022;2023-04-24T00:56:27;13.80;71.50
27004;DHT22;14546;47.590;19.022;2023-04-24T00:58:53;13.90;71.40
27004;DHT22;14546;47.590;19.022;2023-04-24T01:01:22;13.90;71.10
27004;DHT22;14546;47.590;19.022;2023-04-24T01:03:49;13.80;70.30
27004;DHT22;14546;47.590;19.022;2023-04-24T01:06:18;14.00;68.80
27004;DHT22;14546;47.590;19.022;2023-04-24T01:08:45;13.90;68.40
27004;DHT22;14546;47.590;19.022;2023-04-24T01:11:12;13.90;69.10
27004;DHT22;14546;47.590;19.022;2023-04-24T01:13:37;14.10;69.70
27004;DHT22;14546;47.590;19.022;2023-04-24T01:16:04;14.00;69.20
27004;DHT22;14546;47.590;19.022;2023-04-24T01:18:30;14.00;70.70
27004;DHT22;14546;47.590;19.022;2023-04-24T01:21:03;14.00;71.10
27004;DHT22;14546;47.590;19.022;2023-04-24T01:23:29;13.90;71.40
27004;DHT22;14546;47.590;19.022;2023-04-24T01:25:56;14.10;71.10
27004;DHT22;14546;47.590;19.022;2023-04-24T01:28:22;14.10;71.90
27004;DHT22;14546;47.590;19.022;2023-04-24T01:30:49;14.00;71.00
27004;DHT22;14546;47.590;19.022;2023-04-24T01:33:16;14.10;72.60
27004;DHT22;14546;47.590;19.022;2023-04-24T01:35:42;13.90;73.20
27004;DHT22;14546;47.590;19.022;2023-04-24T01:38:09;14.00;72.50
27004;DHT22;14546;47.590;19.022;2023-04-24T01:40:35;14.10;70.30
27004;DHT22;14546;47.590;19.022;2023-04-24T01:43:00;13.90;69.60
27004;DHT22;14546;47.590;19.022;2023-04-24T01:45:26;13.90;70.10
27004;DHT22;14546;47.590;19.022;2023-04-24T01:47:52;14.00;70.30
27004;DHT22;14546;47.590;19.022;2023-04-24T01:50:18;14.00;70.80
27004;DHT22;14546;47.590;19.022;2023-04-24T01:52:43;13.90;70.90
27004;DHT22;14546;47.590;19.022;2023-04-24T01:55:10;13.90;72.20
27004;DHT22;14546;47.590;19.022;2023-04-24T01:57:35;13.90;73.10
27004;DHT22;14546;47.590;19.022;2023-04-24T02:00:02;13.90;74.10
27004;DHT22;14546;47.590;19.022;2023-04-24T02:02:29;13.90;75.40
27004;DHT22;14546;47.590;19.022;2023-04-24T02:04:55;13.80;76.30
27004;DHT22;14546;47.590;19.022;2023-04-24T02:07:22;13.60;77.00
27004;DHT22;14546;47.590;19.022;2023-04-24T02:09:48;13.60;77.80
27004;DHT22;14546;47.590;19.022;2023-04-24T02:12:14;13.60;79.10
27004;DHT22;14546;47.590;19.022;2023-04-24T02:14:40;13.40;79.90
27004;DHT22;14546;47.590;19.022;2023-04-24T02:17:07;13.50;80.10
27004;DHT22;14546;47.590;19.022;2023-04-24T02:19:34;13.30;81.00
27004;DHT22;14546;47.590;19.022;2023-04-24T02:21:59;13.20;80.90
27004;DHT22;14546;47.590;19.022;2023-04-24T02:24:26;13.20;81.00
27004;DHT22;14546;47.590;19.022;2023-04-24T02:26:52;13.20;81.20
27004;DHT22;14546;47.590;19.022;2023-04-24T02:29:17;13.10;81.80
27004;DHT22;14546;47.590;19.022;2023-04-24T02:31:43;13.20;81.60
27004;DHT22;14546;47.590;19.022;2023-04-24T02:34:09;13.20;81.20
27004;DHT22;14546;47.590;19.022;2023-04-24T02:36:35;13.10;81.80
27004;DHT22;14546;47.590;19.022;2023-04-24T02:39:01;13.00;81.70
27004;DHT22;14546;47.590;19.022;2023-04-24T02:41:27;13.10;81.80
27004;DHT22;14546;47.590;19.022;2023-04-24T02:43:57;13.10;81.90
27004;DHT22;14546;47.590;19.022;2023-04-24T02:46:23;13.10;82.10
27004;DHT22;14546;47.590;19.022;2023-04-24T02:48:49;12.90;82.10
27004;DHT22;14546;47.590;19.022;2023-04-24T02:51:14;12.90;82.20
27004;DHT22;14546;47.590;19.022;2023-04-24T02:53:40;12.90;82.70
27004;DHT22;14546;47.590;19.022;2023-04-24T02:56:06;12.90;82.70
27004;DHT22;14546;47.590;19.022;2023-04-24T02:58:31;12.70;82.70
27004;DHT22;14546;47.590;19.022;2023-04-24T03:00:58;12.90;83.00
27004;DHT22;14546;47.590;19.022;2023-04-24T03:03:26;12.90;83.00
27004;DHT22;14546;47.590;19.022;2023-04-24T03:05:52;12.80;83.30
27004;DHT22;14546;47.590;19.022;2023-04-24T03:08:17;12.80;83.20
27004;DHT22;14546;47.590;19.022;2023-04-24T03:10:43;12.70;83.60
27004;DHT22;14546;47.590;19.022;2023-04-24T03:13:09;12.60;82.80
27004;DHT22;14546;47.590;19.022;2023-04-24T03:15:35;12.70;83.10
27004;DHT22;14546;47.590;19.022;2023-04-24T03:18:01;12.80;83.70
27004;DHT22;14546;47.590;19.022;2023-04-24T03:20:28;12.80;83.80
27004;DHT22;14546;47.590;19.022;2023-04-24T03:22:54;12.70;83.60
27004;DHT22;14546;47.590;19.022;2023-04-24T03:25:19;12.80;83.80
27004;DHT22;14546;47.590;19.022;2023-04-24T03:27:45;12.80;83.90
27004;DHT22;14546;47.590;19.022;2023-04-24T03:30:11;12.70;84.00
27004;DHT22;14546;47.590;19.022;2023-04-24T03:32:37;12.70;84.10
27004;DHT22;14546;47.590;19.022;2023-04-24T03:35:05;12.70;84.00
27004;DHT22;14546;47.590;19.022;2023-04-24T03:37:32;12.50;84.40
27004;DHT22;14546;47.590;19.022;2023-04-24T03:39:58;12.70;84.80
27004;DHT22;14546;47.590;19.022;2023-04-24T03:42:23;12.50;84.70
27004;DHT22;14546;47.590;19.022;2023-04-24T03:44:49;12.50;84.60
27004;DHT22;14546;47.590;19.022;2023-04-24T03:47:15;12.70;84.80
27004;DHT22;14546;47.590;19.022;2023-04-24T03:49:40;12.60;85.10
27004;DHT22;14546;47.590;19.022;2023-04-24T03:52:06;12.60;85.30
27004;DHT22;14546;47.590;19.022;2023-04-24T03:54:32;12.70;85.50
27004;DHT22;14546;47.590;19.022;2023-04-24T03:56:58;12.60;85.50
27004;DHT22;14546;47.590;19.022;2023-04-24T03:59:23;12.70;85.50
27004;DHT22;14546;47.590;19.022;2023-04-24T04:01:49;12.60;85.50
27004;DHT22;14546;47.590;19.022;2023-04-24T04:04:15;12.70;85.90
27004;DHT22;14546;47.590;19.022;2023-04-24T04:06:41;12.70;86.00
27004;DHT22;14546;47.590;19.022;2023-04-24T04:09:09;12.70;85.90
27004;DHT22;14546;47.590;19.022;2023-04-24T04:11:36;12.70;85.50
27004;DHT22;14546;47.590;19.022;2023-04-24T04:14:02;12.70;85.10
27004;DHT22;14546;47.590;19.022;2023-04-24T04:16:28;12.70;85.50
27004;DHT22;14546;47.590;19.022;2023-04-24T04:18:53;12.60;85.70
27004;DHT22;14546;47.590;19.022;2023-04-24T04:21:19;12.60;86.00
27004;DHT22;14546;47.590;19.022;2023-04-24T04:23:45;12.70;86.10
27004;DHT22;14546;47.590;19.022;2023-04-24T04:26:11;12.80;85.00
27004;DHT22;14546;47.590;19.022;2023-04-24T04:28:38;12.80;84.90
27004;DHT22;14546;47.590;19.022;2023-04-24T04:31:05;12.90;84.00
27004;DHT22;14546;47.590;19.022;2023-04-24T04:33:30;12.80;84.30
27004;DHT22;14546;47.590;19.022;2023-04-24T04:35:56;12.90;84.70
27004;DHT22;14546;47.590;19.022;2023-04-24T04:38:23;13.00;84.90
27004;DHT22;14546;47.590;19.022;2023-04-24T04:40:49;12.90;85.00
27004;DHT22;14546;47.590;19.022;2023-04-24T04:43:15;12.90;84.60
27004;DHT22;14546;47.590;19.022;2023-04-24T04:45:41;12.90;83.80
27004;DHT22;14546;47.590;19.022;2023-04-24T04:48:09;13.10;84.30
27004;DHT22;14546;47.590;19.022;2023-04-24T04:50:37;13.20;84.30
27004;DHT22;14546;47.590;19.022;2023-04-24T04:53:06;13.20;84.10
27004;DHT22;14546;47.590;19.022;2023-04-24T04:55:33;13.10;84.10
27004;DHT22;14546;47.590;19.022;2023-04-24T04:57:58;13.30;84.10
27004;DHT22;14546;47.590;19.022;2023-04-24T05:00:26;13.40;85.10
27004;DHT22;14546;47.590;19.022;2023-04-24T05:02:52;13.40;85.10
27004;DHT22;14546;47.590;19.022;2023-04-24T05:05:19;13.30;85.70
27004;DHT22;14546;47.590;19.022;2023-04-24T05:07:45;13.30;87.10
27004;DHT22;14546;47.590;19.022;2023-04-24T05:10:11;13.40;90.10
27004;DHT22;14546;47.590;19.022;2023-04-24T05:12:36;13.40;91.60
27004;DHT22;14546;47.590;19.022;2023-04-24T05:15:03;13.50;92.00
27004;DHT22;14546;47.590;19.022;2023-04-24T05:17:30;13.60;91.50
27004;DHT22;14546;47.590;19.022;2023-04-24T05:19:58;13.80;91.80
27004;DHT22;14546;47.590;19.022;2023-04-24T05:22:25;13.70;90.80
27004;DHT22;14546;47.590;19.022;2023-04-24T05:24:51;13.90;91.10
27004;DHT22;14546;47.590;19.022;2023-04-24T05:27:17;13.90;91.30
27004;DHT22;14546;47.590;19.022;2023-04-24T05:29:44;14.00;91.40
27004;DHT22;14546;47.590;19.022;2023-04-24T05:32:10;14.00;80.20
27004;DHT22;14546;47.590;19.022;2023-04-24T05:34:36;14.10;78.20
27004;DHT22;14546;47.590;19.022;2023-04-24T05:37:02;13.90;71.70
27004;DHT22;14546;47.590;19.022;2023-04-24T05:39:29;14.00;71.00
27004;DHT22;14546;47.590;19.022;2023-04-24T05:41:54;14.00;70.60
27004;DHT22;14546;47.590;19.022;2023-04-24T05:44:23;14.10;70.70
27004;DHT22;14546;47.590;19.022;2023-04-24T05:46:49;14.10;70.50
27004;DHT22;14546;47.590;19.022;2023-04-24T05:49:14;14.20;70.40
27004;DHT22;14546;47.590;19.022;2023-04-24T05:51:40;14.30;70.20
27004;DHT22;14546;47.590;19.022;2023-04-24T05:54:06;14.40;70.60
27004;DHT22;14546;47.590;19.022;2023-04-24T05:56:32;14.40;70.50
27004;DHT22;14546;47.590;19.022;2023-04-24T05:58:58;14.50;70.30
27004;DHT22;14546;47.590;19.022;2023-04-24T06:01:23;14.50;70.00
27004;DHT22;14546;47.590;19.022;2023-04-24T06:03:50;14.60;69.90
27004;DHT22;14546;47.590;19.022;2023-04-24T06:06:16;14.70;70.00
27004;DHT22;14546;47.590;19.022;2023-04-24T06:08:42;14.70;69.40
27004;DHT22;14546;47.590;19.022;2023-04-24T06:11:09;14.80;69.40
27004;DHT22;14546;47.590;19.022;2023-04-24T06:13:35;14.70;69.10
27004;DHT22;14546;47.590;19.022;2023-04-24T06:16:01;14.80;69.00
27004;DHT22;14546;47.590;19.022;2023-04-24T06:18:27;14.80;69.00
27004;DHT22;14546;47.590;19.022;2023-04-24T06:20:53;14.80;69.00
27004;DHT22;14546;47.590;19.022;2023-04-24T06:23:20;14.90;69.00
27004;DHT22;14546;47.590;19.022;2023-04-24T06:25:46;14.80;69.00
27004;DHT22;14546;47.590;19.022;2023-04-24T06:28:12;14.90;69.00
27004;DHT22;14546;47.590;19.022;2023-04-24T06:30:38;14.90;69.10
27004;DHT22;14546;47.590;19.022;2023-04-24T06:33:03;14.90;69.20
27004;DHT22;14546;47.590;19.022;2023-04-24T06:35:29;14.90;69.30
27004;DHT22;14546;47.590;19.022;2023-04-24T06:37:55;14.90;69.80
27004;DHT22;14546;47.590;19.022;2023-04-24T06:40:22;14.90;70.30
27004;DHT22;14546;47.590;19.022;2023-04-24T06:42:47;14.80;70.70
27004;DHT22;14546;47.590;19.022;2023-04-24T06:45:13;14.90;71.20
27004;DHT22;14546;47.590;19.022;2023-04-24T06:47:39;14.80;71.50
27004;DHT22;14546;47.590;19.022;2023-04-24T06:50:05;14.80;71.60
27004;DHT22;14546;47.590;19.022;2023-04-24T06:52:31;14.90;71.70
27004;DHT22;14546;47.590;19.022;2023-04-24T06:55:01;15.00;71.80
27004;DHT22;14546;47.590;19.022;2023-04-24T06:57:28;15.10;71.90
27004;DHT22;14546;47.590;19.022;2023-04-24T06:59:54;15.10;71.80
27004;DHT22;14546;47.590;19.022;2023-04-24T07:02:20;15.20;71.70
27004;DHT22;14546;47.590;19.022;2023-04-24T07:04:45;15.30;71.70
27004;DHT22;14546;47.590;19.022;2023-04-24T07:07:12;15.40;71.60
27004;DHT22;14546;47.590;19.022;2023-04-24T07:09:39;15.40;71.50
27004;DHT22;14546;47.590;19.022;2023-04-24T07:12:10;15.50;71.30
27004;DHT22;14546;47.590;19.022;2023-04-24T07:14:37;15.60;71.00
27004;DHT22;14546;47.590;19.022;2023-04-24T07:17:03;15.70;70.50
27004;DHT22;14546;47.590;19.022;2023-04-24T07:19:30;15.80;70.20
27004;DHT22;14546;47.590;19.022;2023-04-24T07:21:55;15.90;70.00
27004;DHT22;14546;47.590;19.022;2023-04-24T07:24:26;15.90;70.00
27004;DHT22;14546;47.590;19.022;2023-04-24T07:26:52;16.00;69.90
27004;DHT22;14546;47.590;19.022;2023-04-24T07:29:18;16.20;69.80
27004;DHT22;14546;47.590;19.022;2023-04-24T07:31:45;16.20;68.90
27004;DHT22;14546;47.590;19.022;2023-04-24T07:34:11;16.20;68.70
27004;DHT22;14546;47.590;19.022;2023-04-24T07:36:36;16.20;68.70
27004;DHT22;14546;47.590;19.022;2023-04-24T07:39:07;16.30;68.70
27004;DHT22;14546;47.590;19.022;2023-04-24T07:41:33;16.40;68.70
27004;DHT22;14546;47.590;19.022;2023-04-24T07:43:59;16.40;68.50
27004;DHT22;14546;47.590;19.022;2023-04-24T07:46:25;16.60;68.30
27004;DHT22;14546;47.590;19.022;2023-04-24T07:48:51;16.50;67.70
27004;DHT22;14546;47.590;19.022;2023-04-24T07:51:17;16.50;67.90
27004;DHT22;14546;47.590;19.022;2023-04-24T07:53:43;16.60;68.00
27004;DHT22;14546;47.590;19.022;2023-04-24T07:56:09;16.60;68.00
27004;DHT22;14546;47.590;19.022;2023-04-24T07:58:35;16.70;68.10
27004;DHT22;14546;47.590;19.022;2023-04-24T08:01:01;16.80;67.80
27004;DHT22;14546;47.590;19.022;2023-04-24T08:03:26;16.70;67.20
27004;DHT22;14546;47.590;19.022;2023-04-24T08:05:52;16.70;67.00
27004;DHT22;14546;47.590;19.022;2023-04-24T08:08:19;16.80;67.10
27004;DHT22;14546;47.590;19.022;2023-04-24T08:10:45;16.80;67.00
27004;DHT22;14546;47.590;19.022;2023-04-24T08:13:11;16.80;66.80
27004;DHT22;14546;47.590;19.022;2023-04-24T08:15:37;16.80;67.70
27004;DHT22;14546;47.590;19.022;2023-04-24T08:18:02;16.80;67.10
27004;DHT22;14546;47.590;19.022;2023-04-24T08:20:28;16.90;67.20
27004;DHT22;14546;47.590;19.022;2023-04-24T08:22:54;17.00;67.60
27004;DHT22;14546;47.590;19.022;2023-04-24T08:25:20;17.10;67.60
27004;DHT22;14546;47.590;19.022;2023-04-24T08:27:48;17.20;67.50
27004;DHT22;14546;47.590;19.022;2023-04-24T08:30:14;17.40;67.40
27004;DHT22;14546;47.590;19.022;2023-04-24T08:32:40;17.50;67.20
27004;DHT22;14546;47.590;19.022;2023-04-24T08:35:06;17.60;67.00
27004;DHT22;14546;47.590;19.022;2023-04-24T08:37:34;17.70;66.50
27004;DHT22;14546;47.590;19.022;2023-04-24T08:39:59;17.70;66.50
27004;DHT22;14546;47.590;19.022;2023-04-24T08:42:28;17.80;66.50
27004;DHT22;14546;47.590;19.022;2023-04-24T08:44:57;17.90;66.40
27004;DHT22;14546;47.590;19.022;2023-04-24T08:47:23;17.90;65.80
27004;DHT22;14546;47.590;19.022;2023-04-24T08:49:50;17.90;65.50
27004;DHT22;14546;47.590;19.022;2023-04-24T08:52:16;17.90;65.50
27004;DHT22;14546;47.590;19.022;2023-04-24T08:54:43;17.90;65.40
27004;DHT22;14546;47.590;19.022;2023-04-24T08:57:14;17.90;65.30
27004;DHT22;14546;47.590;19.022;2023-04-24T08:59:40;17.90;65.10
27004;DHT22;14546;47.590;19.022;2023-04-24T09:02:10;17.90;64.70
27004;DHT22;14546;47.590;19.022;2023-04-24T09:04:37;17.90;64.90
27004;DHT22;14546;47.590;19.022;2023-04-24T09:07:03;18.00;64.90
27004;DHT22;14546;47.590;19.022;2023-04-24T09:09:32;18.10;64.70
27004;DHT22;14546;47.590;19.022;2023-04-24T09:11:58;18.20;64.10
27004;DHT22;14546;47.590;19.022;2023-04-24T09:14:24;18.20;63.40
27004;DHT22;14546;47.590;19.022;2023-04-24T09:16:50;18.30;63.10
27004;DHT22;14546;47.590;19.022;2023-04-24T09:19:16;18.30;62.70
27004;DHT22;14546;47.590;19.022;2023-04-24T09:21:45;18.20;62.70
27004;DHT22;14546;47.590;19.022;2023-04-24T09:24:20;18.30;63.20
27004;DHT22;14546;47.590;19.022;2023-04-24T09:26:57;18.70;63.10
27004;DHT22;14546;47.590;19.022;2023-04-24T09:29:24;18.60;63.00
27004;DHT22;14546;47.590;19.022;2023-04-24T09:31:50;18.80;62.80
27004;DHT22;14546;47.590;19.022;2023-04-24T09:34:24;19.00;62.60
27004;DHT22;14546;47.590;19.022;2023-04-24T09:36:50;19.10;61.90
27004;DHT22;14546;47.590;19.022;2023-04-24T09:39:17;19.10;61.60
27004;DHT22;14546;47.590;19.022;2023-04-24T09:41:52;19.20;61.30
27004;DHT22;14546;47.590;19.022;2023-04-24T09:44:20;19.30;60.50
27004;DHT22;14546;47.590;19.022;2023-04-24T09:46:50;19.40;61.30
27004;DHT22;14546;47.590;19.022;2023-04-24T09:49:21;19.50;64.00
27004;DHT22;14546;47.590;19.022;2023-04-24T09:51:47;19.70;71.90
27004;DHT22;14546;47.590;19.022;2023-04-24T09:54:20;19.80;76.60
27004;DHT22;14546;47.590;19.022;2023-04-24T09:56:48;19.90;85.90
27004;DHT22;14546;47.590;19.022;2023-04-24T09:59:15;20.10;80.00
27004;DHT22;14546;47.590;19.022;2023-04-24T10:01:41;20.00;76.60
27004;DHT22;14546;47.590;19.022;2023-04-24T10:06:44;20.10;71.30
27004;DHT22;14546;47.590;19.022;2023-04-24T10:09:10;20.20;72.10
27004;DHT22;14546;47.590;19.022;2023-04-24T10:11:43;20.10;69.20
27004;DHT22;14546;47.590;19.022;2023-04-24T10:14:14;20.10;68.40
27004;DHT22;14546;47.590;19.022;2023-04-24T10:16:43;20.20;67.50
27004;DHT22;14546;47.590;19.022;2023-04-24T10:19:09;20.20;67.90
27004;DHT22;14546;47.590;19.022;2023-04-24T10:21:36;20.40;68.40
27004;DHT22;14546;47.590;19.022;2023-04-24T10:24:08;20.40;68.50
27004;DHT22;14546;47.590;19.022;2023-04-24T10:26:34;20.50;70.60
27004;DHT22;14546;47.590;19.022;2023-04-24T10:29:00;20.60;72.80
27004;DHT22;14546;47.590;19.022;2023-04-24T10:31:27;20.60;74.90
27004;DHT22;14546;47.590;19.022;2023-04-24T10:33:56;20.60;74.90
27004;DHT22;14546;47.590;19.022;2023-04-24T10:36:24;20.60;75.90
27004;DHT22;14546;47.590;19.022;2023-04-24T10:38:54;20.90;80.50
27004;DHT22;14546;47.590;19.022;2023-04-24T10:41:20;20.80;78.70
27004;DHT22;14546;47.590;19.022;2023-04-24T13:30:12;20.80;78.90
27004;DHT22;14546;47.590;19.022;2023-04-24T13:32:39;19.80;70.20
27004;DHT22;14546;47.590;19.022;2023-04-24T13:35:05;19.70;69.30
27004;DHT22;14546;47.590;19.022;2023-04-24T13:37:30;19.80;69.50
27004;DHT22;14546;47.590;19.022;2023-04-24T13:39:56;19.80;68.70
27004;DHT22;14546;47.590;19.022;2023-04-24T13:42:22;19.70;66.70
27004;DHT22;14546;47.590;19.022;2023-04-24T13:44:48;19.60;64.60
27004;DHT22;14546;47.590;19.022;2023-04-24T13:47:13;19.40;65.30
27004;DHT22;14546;47.590;19.022;2023-04-24T13:49:39;19.20;64.70
27004;DHT22;14546;47.590;19.022;2023-04-24T13:52:05;19.00;63.40
27004;DHT22;14546;47.590;19.022;2023-04-24T13:54:30;18.90;63.30
27004;DHT22;14546;47.590;19.022;2023-04-24T13:56:57;18.70;63.80
27004;DHT22;14546;47.590;19.022;2023-04-24T13:59:25;18.50;66.80
27004;DHT22;14546;47.590;19.022;2023-04-24T14:01:50;18.30;67.60
27004;DHT22;14546;47.590;19.022;2023-04-24T14:04:16;18.10;68.90
27004;DHT22;14546;47.590;19.022;2023-04-24T17:17:07;17.80;69.80
27004;DHT22;14546;47.590;19.022;2023-04-24T17:19:33;14.50;85.90
27004;DHT22;14546;47.590;19.022;2023-04-24T17:21:59;14.40;85.80
27004;DHT22;14546;47.590;19.022;2023-04-24T17:24:25;14.30;85.90
27004;DHT22;14546;47.590;19.022;2023-04-24T17:26:52;14.30;86.00
27004;DHT22;14546;47.590;19.022;2023-04-24T20:57:13;14.30;85.90
27004;DHT22;14546;47.590;19.022;2023-04-24T20:59:38;13.10;86.30
27004;DHT22;14546;47.590;19.022;2023-04-24T21:02:05;13.00;86.60
27004;DHT22;14546;47.590;19.022;2023-04-24T21:04:30;13.10;86.60
27004;DHT22;14546;47.590;19.022;2023-04-24T21:07:16;13.00;86.50
27004;DHT22;14546;47.590;19.022;2023-04-24T21:09:41;13.00;86.50
27004;DHT22;14546;47.590;19.022;2023-04-24T21:12:07;13.00;86.30
27004;DHT22;14546;47.590;19.022;2023-04-24T21:14:34;13.10;86.40
27004;DHT22;14546;47.590;19.022;2023-04-24T21:16:59;13.10;86.30
27004;DHT22;14546;47.590;19.022;2023-04-24T21:19:29;13.10;86.30
27004;DHT22;14546;47.590;19.022;2023-04-24T21:21:56;13.10;86.30
27004;DHT22;14546;47.590;19.022;2023-04-24T21:24:22;13.10;86.10
27004;DHT22;14546;47.590;19.022;2023-04-24T21:26:48;13.10;86.00
27004;DHT22;14546;47.590;19.022;2023-04-24T21:29:13;13.10;85.90
27004;DHT22;14546;47.590;19.022;2023-04-24T21:31:39;13.10;85.80
27004;DHT22;14546;47.590;19.022;2023-04-24T21:34:05;13.10;85.70
27004;DHT22;14546;47.590;19.022;2023-04-24T21:36:30;13.10;85.70
27004;DHT22;14546;47.590;19.022;2023-04-24T21:38:56;13.10;85.60
27004;DHT22;14546;47.590;19.022;2023-04-24T21:41:22;13.10;85.40
27004;DHT22;14546;47.590;19.022;2023-04-24T21:43:49;13.10;85.40
27004;DHT22;14546;47.590;19.022;2023-04-24T21:46:14;13.10;85.40
27004;DHT22;14546;47.590;19.022;2023-04-24T21:48:40;13.00;85.20
27004;DHT22;14546;47.590;19.022;2023-04-24T21:51:06;13.10;85.30
27004;DHT22;14546;47.590;19.022;2023-04-24T21:53:32;13.00;85.10
27004;DHT22;14546;47.590;19.022;2023-04-24T21:55:58;13.00;85.00
27004;DHT22;14546;47.590;19.022;2023-04-24T21:58:24;13.00;85.10
27004;DHT22;14546;47.590;19.022;2023-04-24T22:00:51;13.00;85.00
27004;DHT22;14546;47.590;19.022;2023-04-24T22:03:17;12.90;84.90
27004;DHT22;14546;47.590;19.022;2023-04-24T22:05:42;12.90;84.90
27004;DHT22;14546;47.590;19.022;2023-04-24T22:08:09;12.90;84.90
27004;DHT22;14546;47.590;19.022;2023-04-24T22:10:35;12.80;84.80
27004;DHT22;14546;47.590;19.022;2023-04-24T22:13:02;12.80;85.10
27004;DHT22;14546;47.590;19.022;2023-04-24T22:15:28;12.80;85.70
27004;DHT22;14546;47.590;19.022;2023-04-24T22:17:53;12.80;85.40
27004;DHT22;14546;47.590;19.022;2023-04-24T22:20:19;12.70;85.30
27004;DHT22;14546;47.590;19.022;2023-04-24T22:22:46;12.70;85.30
27004;DHT22;14546;47.590;19.022;2023-04-24T22:25:12;12.60;86.10
27004;DHT22;14546;47.590;19.022;2023-04-24T22:27:38;12.60;85.40
27004;DHT22;14546;47.590;19.022;2023-04-24T22:30:04;12.60;85.50
27004;DHT22;14546;47.590;19.022;2023-04-24T22:32:30;12.50;85.60
27004;DHT22;14546;47.590;19.022;2023-04-24T22:34:57;12.50;85.80
27004;DHT22;14546;47.590;19.022;2023-04-24T22:37:23;12.50;85.90
27004;DHT22;14546;47.590;19.022;2023-04-24T22:39:49;12.40;86.70
27004;DHT22;14546;47.590;19.022;2023-04-24T22:42:14;12.40;86.00
27004;DHT22;14546;47.590;19.022;2023-04-24T22:44:40;12.40;86.30
27004;DHT22;14546;47.590;19.022;2023-04-24T22:47:07;12.40;86.30
27004;DHT22;14546;47.590;19.022;2023-04-24T22:49:36;12.40;86.40
27004;DHT22;14546;47.590;19.022;2023-04-24T22:52:02;12.30;86.50
27004;DHT22;14546;47.590;19.022;2023-04-24T22:54:33;12.30;86.60
27004;DHT22;14546;47.590;19.022;2023-04-24T22:57:00;12.30;86.60
27004;DHT22;14546;47.590;19.022;2023-04-24T22:59:27;12.30;86.80
27004;DHT22;14546;47.590;19.022;2023-04-24T23:01:54;12.20;86.90
27004;DHT22;14546;47.590;19.022;2023-04-24T23:04:21;12.20;87.00
27004;DHT22;14546;47.590;19.022;2023-04-24T23:06:47;12.20;87.00
27004;DHT22;14546;47.590;19.022;2023-04-24T23:09:14;12.10;87.10
27004;DHT22;14546;47.590;19.022;2023-04-24T23:11:41;12.20;87.30
27004;DHT22;14546;47.590;19.022;2023-04-24T23:14:08;12.10;87.10
27004;DHT22;14546;47.590;19.022;2023-04-24T23:16:34;12.10;87.20
27004;DHT22;14546;47.590;19.022;2023-04-24T23:19:02;12.10;87.20
27004;DHT22;14546;47.590;19.022;2023-04-24T23:21:29;12.20;87.30
27004;DHT22;14546;47.590;19.022;2023-04-24T23:23:57;12.10;87.20
27004;DHT22;14546;47.590;19.022;2023-04-24T23:26:23;12.10;87.20
27004;DHT22;14546;47.590;19.022;2023-04-24T23:28:48;12.10;87.20
27004;DHT22;14546;47.590;19.022;2023-04-24T23:31:15;12.10;87.10
27004;DHT22;14546;47.590;19.022;2023-04-24T23:33:42;12.10;87.00
27004;DHT22;14546;47.590;19.022;2023-04-24T23:36:09;12.10;87.00
27004;DHT22;14546;47.590;19.022;2023-04-24T23:38:36;12.10;86.90
27004;DHT22;14546;47.590;19.022;2023-04-24T23:41:02;12.20;87.00
27004;DHT22;14546;47.590;19.022;2023-04-24T23:43:29;12.20;87.00
27004;DHT22;14546;47.590;19.022;2023-04-24T23:45:59;12.20;86.90
27004;DHT22;14546;47.590;19.022;2023-04-24T23:48:25;12.20;86.70
27004;DHT22;14546;47.590;19.022;2023-04-24T23:50:50;12.20;86.50
27004;DHT22;14546;47.590;19.022;2023-04-24T23:53:16;12.20;86.30
27004;DHT22;14546;47.590;19.022;2023-04-24T23:55:43;12.20;86.20
27004;DHT22;14546;47.590;19.022;2023-04-24T23:58:09;12.20;86.10
